CFB Cold Lake
CYOD : rendu visible

Aérodrome :











RETROUVEZ-NOUS SUR...

 
LOGIN :

S'inscrire | Disclaimer

   EN    FR    IT 

 









Légende :    VFR   VFR Marginal   IFR   IFR Intensif   IFR Très Intensif
Visi : 
Plafond : 
>= 8 km
>= 3000ft
5 à 8 km
1000 à 3000 ft
1500m à 5 km
500 à 1000 ft
800 à 1500m
200 à 500 ft
< 800m
< 200 ft
Symboles :   Orages  Brouillard  Fortes neiges  Fortes précipitations  Vent > 20 kt






- Altitude de l'aérodrome : 1775 ft
- Code IATA : YOD


CYOD - CFB Cold Lake

DERNIER METAR :
  • 222300Z 26008KT 15SM BKN230 05/M02 A2966 RMK CI7 SLP069

METARs EXPIRÉS :
  • 222200Z 27010KT 15SM BKN250 06/M02 A2965 RMK CI6 SLP066
  • 222100Z 27013G18KT 15SM FEW250 07/M01 A2964 RMK CI2 SLP059

TAF TAF CYOD
Valide du 23 à 00h jusqu'au 24 à 00h UTC


222330Z 2300/2324 26008KT P6SM BKN230
FM230300 25012KT P6SM BKN060
BECMG 2303/2305 25008KT
FM231200 25010KT P6SM SCT200
BECMG 2316/2318 28018G28KT
BECMG 2322/2324 25008KT RMK NXT FCST BY 230600Z



MET'MAP, la Météo Aéronautique d'un coup d'oeil ! - Copyright ORBIFLY Décembre 2007 - Disclaimer

ORBIFLY MET'MAP TEAM :

Programmation & Développement : Alexandra Zaïnal
Conception & Développement : Baudouin d'Aumeries
Co-Programmation & Développement : Marc-Olivier Méhu
Soutien technique & logistique : Manuel Goepfert

Contact : metmap@orbifly.com




SOURCES & CREDITS :

   NOAA       Earth
Advisory